Time;durP1;ratioP1;P1;durP2;ratioP2;P2;SDS_P1;SDS_P2;PMS_P1;PMS_P2;Temp;Humidity;BMP_temperature;BMP_pressure;BME280_temperature;BME280_humidity;BME280_pressure;Samples;Min_cycle;Max_cycle;Signal;HPM_P1;HPM_P2
2022/04/16 00:00:27;;;;;;;12.10;7.38;;;8.30;99.90;;;;;;5071346;28;20134;-74
2022/04/16 00:02:54;;;;;;;12.40;7.30;;;8.30;99.90;;;;;;5054434;28;20819;-74
2022/04/16 00:05:21;;;;;;;10.23;6.82;;;8.40;99.90;;;;;;5089554;28;20036;-74
2022/04/16 00:08:06;;;;;;;12.15;7.82;;;8.40;99.90;;;;;;5066963;28;20705;-73
2022/04/16 00:10:32;;;;;;;10.02;6.60;;;8.40;99.90;;;;;;5090296;28;20048;-73
2022/04/16 00:12:59;;;;;;;12.90;7.43;;;8.50;99.90;;;;;;5089959;28;20132;-73
2022/04/16 00:15:25;;;;;;;11.77;6.93;;;9.50;99.90;;;;;;5090061;28;20681;-75
2022/04/16 00:17:51;;;;;;;10.57;6.32;;;8.50;99.90;;;;;;5090319;28;20048;-75
2022/04/16 00:20:16;;;;;;;;;;;8.50;99.90;;;;;;5070505;28;20045;-76
2022/04/16 00:22:42;;;;;;;8.48;6.18;;;8.50;99.90;;;;;;5068542;28;20024;-74
2022/04/16 00:25:07;;;;;;;;;;;8.60;99.90;;;;;;5091192;28;20105;-73
2022/04/16 00:27:34;;;;;;;12.40;7.40;;;8.50;99.90;;;;;;5090950;28;20019;-73
2022/04/16 00:30:01;;;;;;;12.20;6.55;;;8.50;99.90;;;;;;5067433;28;20823;-73
2022/04/16 00:32:27;;;;;;;11.27;7.18;;;8.50;99.90;;;;;;5071318;28;20044;-73
2022/04/16 00:34:53;;;;;;;;;;;8.50;99.90;;;;;;5089092;28;20080;-73
2022/04/16 00:37:18;;;;;;;10.00;6.38;;;8.60;99.90;;;;;;5088386;28;19971;-73
2022/04/16 00:39:44;;;;;;;;;;;9.30;99.90;;;;;;5089720;28;20478;-73
2022/04/16 00:42:09;;;;;;;11.00;6.57;;;8.60;99.90;;;;;;5088440;28;19962;-73
2022/04/16 00:44:35;;;;;;;;;;;8.60;99.90;;;;;;5089662;28;20094;-73
2022/04/16 00:47:00;;;;;;;9.40;6.32;;;8.60;99.90;;;;;;5090656;28;19931;-74
2022/04/16 00:49:29;;;;;;;;;;;8.70;99.90;;;;;;5095102;28;20429;-74
2022/04/16 00:51:55;;;;;;;8.68;5.70;;;8.60;99.90;;;;;;5073061;28;19927;-74
2022/04/16 00:54:20;;;;;;;9.85;6.30;;;8.70;99.90;;;;;;5092352;28;20048;-74
2022/04/16 00:56:47;;;;;;;;;;;8.70;99.90;;;;;;5093071;28;20141;-74
2022/04/16 00:59:12;;;;;;;13.93;7.28;;;9.90;99.90;;;;;;5092085;28;20371;-74
2022/04/16 01:01:38;;;;;;;;;;;8.70;99.90;;;;;;5093415;28;20042;-74
2022/04/16 01:04:04;;;;;;;11.02;7.18;;;8.80;99.90;;;;;;5073567;28;20383;-74
2022/04/16 01:06:40;;;;;;;11.10;7.03;;;8.70;99.90;;;;;;5092982;28;20028;-74
2022/04/16 01:09:06;;;;;;;11.15;6.75;;;8.70;99.90;;;;;;5071492;28;20044;-75
2022/04/16 01:11:32;;;;;;;10.57;6.50;;;8.70;99.90;;;;;;5091756;28;20032;-74
2022/04/16 01:14:01;;;;;;;;;;;8.70;99.90;;;;;;5074488;28;20165;-74
2022/04/16 01:16:31;;;;;;;9.88;6.43;;;8.00;99.90;;;;;;5074167;28;19927;-74
2022/04/16 01:18:57;;;;;;;8.88;6.63;;;8.80;99.90;;;;;;5071857;28;20376;-74
2022/04/16 01:21:23;;;;;;;10.73;6.70;;;9.50;99.90;;;;;;5073731;28;20074;-74
2022/04/16 01:23:48;;;;;;;;;;;9.80;99.90;;;;;;5092827;28;20079;-74
2022/04/16 01:26:14;;;;;;;11.10;6.53;;;8.80;99.90;;;;;;5091190;28;20290;-74
2022/04/16 01:28:43;;;;;;;;;;;8.80;99.90;;;;;;5092920;28;20093;-74
2022/04/16 01:31:09;;;;;;;10.52;6.72;;;8.80;99.90;;;;;;5091152;28;19924;-73
2022/04/16 01:33:35;;;;;;;11.02;6.93;;;8.80;99.90;;;;;;5078169;28;20141;-74
2022/04/16 01:36:00;;;;;;;;;;;8.80;99.90;;;;;;5112420;28;20062;-74
2022/04/16 01:38:26;;;;;;;11.15;6.93;;;8.80;99.90;;;;;;5112107;28;19945;-74
2022/04/16 01:40:55;;;;;;;;;;;8.80;99.90;;;;;;5112059;28;20067;-74
2022/04/16 01:43:24;;;;;;;11.73;7.22;;;8.80;99.90;;;;;;5111880;28;19916;-74
2022/04/16 01:45:50;;;;;;;13.30;7.63;;;;;;;;;;5091760;28;20093;-74
2022/04/16 01:48:19;;;;;;;;;;;8.80;99.90;;;;;;5091271;28;20092;-74
2022/04/16 01:50:48;;;;;;;;;;;8.80;99.90;;;;;;5111300;28;20362;-74
2022/04/16 01:53:14;;;;;;;;;;;8.80;99.90;;;;;;5110389;28;20384;-74
2022/04/16 01:55:40;;;;;;;;;;;7.80;99.90;;;;;;5108817;28;19923;-74
2022/04/16 01:58:06;;;;;;;;;;;8.70;99.90;;;;;;5109580;28;20405;-74
2022/04/16 02:00:33;;;;;;;;;;;8.70;99.90;;;;;;5090655;28;19959;-74
2022/04/16 02:02:59;;;;;;;;;;;8.70;99.90;;;;;;5109402;28;19919;-74
2022/04/16 02:05:24;;;;;;;;;;;8.70;99.90;;;;;;5089325;28;19927;-74
2022/04/16 02:07:50;;;;;;;;;;;8.60;99.90;;;;;;5108163;28;19919;-74
2022/04/16 02:10:16;;;;;;;;;;;8.60;99.90;;;;;;5089929;28;19954;-74
2022/04/16 02:12:42;;;;;;;;;;;8.60;99.90;;;;;;5104956;28;19931;-74
2022/04/16 02:15:07;;;;;;;;;;;8.60;99.90;;;;;;5091342;28;19924;-74
2022/04/16 02:17:34;;;;;;;;;;;8.60;99.90;;;;;;5091453;28;19972;-74
2022/04/16 02:19:59;;;;;;;;;;;8.60;99.90;;;;;;5090809;28;20011;-74
2022/04/16 02:22:25;;;;;;;;;;;8.60;99.90;;;;;;5109607;28;19923;-74
2022/04/16 02:24:51;;;;;;;;;;;8.50;99.90;;;;;;5092051;28;19920;-74
2022/04/16 02:27:16;;;;;;;;;;;8.60;99.90;;;;;;5091277;28;19923;-74
2022/04/16 02:29:42;;;;;;;;;;;8.60;99.90;;;;;;5109142;28;19922;-74
2022/04/16 02:32:08;;;;;;;;;;;8.60;99.90;;;;;;5089193;28;20414;-74
2022/04/16 02:34:33;;;;;;;;;;;8.50;99.90;;;;;;5091509;28;19969;-74
2022/04/16 02:36:59;;;;;;;;;;;8.50;99.90;;;;;;5087544;28;20433;-74
2022/04/16 02:39:25;;;;;;;;;;;8.60;99.90;;;;;;5090145;28;20339;-74
2022/04/16 02:41:50;;;;;;;;;;;8.80;99.90;;;;;;5091790;28;20358;-74
2022/04/16 02:47:06;;;;;;;;;;;9.40;99.90;;;;;;5097643;28;19927;-74
2022/04/16 02:49:39;;;;;;;;;;;8.60;99.90;;;;;;5113893;28;19915;-74
2022/04/16 02:52:05;;;;;;;;;;;8.60;99.90;;;;;;5115509;28;19934;-74
2022/04/16 02:54:31;;;;;;;;;;;8.60;99.90;;;;;;5096871;28;19995;-74
2022/04/16 02:56:57;;;;;;;;;;;8.60;99.90;;;;;;5094982;28;19970;-74
2022/04/16 02:59:23;;;;;;;;;;;8.60;99.90;;;;;;5114959;28;20327;-74
2022/04/16 03:01:48;;;;;;;;;;;8.60;99.90;;;;;;5097275;28;19923;-74
2022/04/16 03:04:14;;;;;;;;;;;8.60;99.90;;;;;;5114796;28;19934;-74
2022/04/16 03:06:40;;;;;;;;;;;8.50;99.90;;;;;;5097351;28;19920;-74
2022/04/16 03:09:06;;;;;;;;;;;8.50;99.90;;;;;;5115509;28;19928;-74
2022/04/16 03:11:32;;;;;;;;;;;8.50;99.90;;;;;;5115198;28;19920;-74
2022/04/16 03:17:31;;;;;;;;;;;8.90;99.90;;;;;;5115532;28;19928;-74
2022/04/16 03:19:28;;;;;;;;;;;8.50;99.90;;;;;;5114966;28;20394;-74
2022/04/16 03:21:53;;;;;;;;;;;8.50;99.90;;;;;;5115801;28;19981;-74
2022/04/16 03:24:18;;;;;;;;;;;8.50;99.90;;;;;;5115070;28;19920;-74
2022/04/16 03:26:44;;;;;;;;;;;8.40;99.90;;;;;;5115170;28;19938;-74
2022/04/16 03:29:09;;;;;;;;;;;8.50;99.90;;;;;;5114735;28;20299;-74
2022/04/16 03:31:35;;;;;;;;;;;8.40;99.90;;;;;;5115475;28;19926;-74
2022/04/16 03:34:01;;;;;;;;;;;8.40;99.90;;;;;;5095933;28;20413;-74
2022/04/16 03:36:26;;;;;;;;;;;8.40;99.90;;;;;;5097077;28;20324;-74
2022/04/16 03:38:52;;;;;;;;;;;8.40;99.90;;;;;;5114392;28;19928;-74
2022/04/16 03:41:18;;;;;;;;;;;8.30;99.90;;;;;;5096403;28;19926;-73
2022/04/16 03:43:43;;;;;;;;;;;8.30;99.90;;;;;;5094283;28;19916;-73
2022/04/16 03:46:09;;;;;;;;;;;8.30;99.90;;;;;;5114196;28;19977;-73
2022/04/16 03:48:34;;;;;;;;;;;8.30;99.90;;;;;;5115181;28;20019;-73
2022/04/16 03:51:00;;;;;;;;;;;8.30;99.90;;;;;;5114837;28;19928;-73
2022/04/16 03:53:28;;;;;;;;;;;8.20;99.90;;;;;;5114500;28;19920;-73
2022/04/16 04:01:42;;;;;;;;;;;8.00;99.90;;;;;;5032551;28;19921;-73
2022/04/16 04:04:07;;;;;;;;;;;8.00;99.90;;;;;;5031672;28;21612;-73
2022/04/16 04:06:32;;;;;;;;;;;7.90;99.90;;;;;;5070101;28;20351;-73
2022/04/16 04:08:59;;;;;;;;;;;7.90;99.90;;;;;;5107625;28;20081;-73
2022/04/16 04:11:27;;;;;;;;;;;7.90;99.90;;;;;;5094823;28;19924;-74
2022/04/16 04:13:53;;;;;;;;;;;7.80;99.90;;;;;;5113943;28;20010;-74
2022/04/16 04:16:19;;;;;;;;;;;8.10;99.90;;;;;;5111706;28;20351;-74
2022/04/16 04:18:45;;;;;;;;;;;7.70;99.90;;;;;;5114505;28;19920;-74
2022/04/16 04:21:11;;;;;;;;;;;7.70;99.90;;;;;;5113412;28;19920;-74
2022/04/16 04:23:36;;;;;;;;;;;7.60;99.90;;;;;;5114323;28;19919;-74
2022/04/16 04:26:03;;;;;;;;;;;7.50;99.90;;;;;;5113963;28;19973;-74
2022/04/16 04:28:29;;;;;;;;;;;7.50;99.90;;;;;;5113369;28;20006;-74
2022/04/16 04:30:54;;;;;;;;;;;7.30;99.90;;;;;;5093918;28;20003;-74
2022/04/16 04:33:20;;;;;;;;;;;7.30;99.90;;;;;;5111645;28;19919;-75
2022/04/16 04:35:45;;;;;;;;;;;7.20;99.90;;;;;;5094329;28;19927;-73
2022/04/16 04:38:11;;;;;;;;;;;7.70;99.90;;;;;;5088844;28;19920;-73
2022/04/16 04:40:36;;;;;;;;;;;7.10;99.90;;;;;;5081128;28;19933;-74
2022/04/16 04:43:05;;;;;;;;;;;7.00;99.90;;;;;;5108119;28;19920;-73
2022/04/16 04:45:30;;;;;;;;;;;7.00;99.90;;;;;;5109889;28;19938;-73
2022/04/16 04:47:56;;;;;;;;;;;7.00;99.90;;;;;;5107272;28;19951;-75
2022/04/16 04:50:21;;;;;;;;;;;6.90;99.90;;;;;;5112391;28;19916;-75
2022/04/16 04:52:47;;;;;;;;;;;6.90;99.90;;;;;;5093586;28;19947;-75
2022/04/16 04:55:13;;;;;;;;;;;6.80;99.90;;;;;;5112471;28;19920;-71
2022/04/16 04:57:42;;;;;;;;;;;6.80;99.90;;;;;;5111204;28;19931;-71
2022/04/16 05:00:09;;;;;;;;;;;6.70;99.90;;;;;;5091261;28;19919;-73
2022/04/16 05:02:52;;;;;;;;;;;6.70;99.90;;;;;;5091052;28;19920;-73
2022/04/16 05:05:18;;;;;;;;;;;6.60;99.90;;;;;;5092801;28;19926;-73
2022/04/16 05:07:44;;;;;;;;;;;6.70;99.90;;;;;;5107655;28;19924;-73
2022/04/16 05:10:09;;;;;;;;;;;6.70;99.90;;;;;;5097988;28;19920;-73
2022/04/16 05:12:35;;;;;;;;;;;6.70;99.90;;;;;;5099742;28;19920;-73
2022/04/16 05:15:01;;;;;;;;;;;6.70;99.90;;;;;;5090826;28;20053;-73
2022/04/16 05:17:27;;;;;;;;;;;6.80;99.90;;;;;;5107463;28;20081;-73
2022/04/16 05:19:52;;;;;;;;;;;6.80;99.90;;;;;;5072957;28;20004;-73
2022/04/16 05:22:21;;;;;;;;;;;6.90;99.90;;;;;;5089734;28;20377;-73
2022/04/16 05:24:46;;;;;;;;;;;6.90;99.90;;;;;;5109814;28;20056;-73
2022/04/16 05:27:12;;;;;;;;;;;7.00;99.90;;;;;;5090083;28;20010;-73
2022/04/16 05:32:36;;;;;;;;;;;7.10;99.90;;;;;;5052796;28;19955;-72
2022/04/16 05:35:03;;;;;;;;;;;7.20;99.90;;;;;;5082953;28;20328;-73
2022/04/16 05:37:28;;;;;;;;;;;7.30;99.90;;;;;;5092144;28;19931;-72
2022/04/16 05:39:54;;;;;;;;;;;8.20;99.90;;;;;;5093261;28;19920;-72
2022/04/16 05:42:19;;;;;;;;;;;7.40;99.90;;;;;;5092751;28;19926;-73
2022/04/16 05:44:45;;;;;;;;;;;7.50;99.90;;;;;;5096567;28;19923;-73
2022/04/16 05:47:10;;;;;;;;;;;7.50;99.90;;;;;;5075424;28;19920;-72
2022/04/16 05:49:36;;;;;;;;;;;7.60;99.90;;;;;;5094710;28;19965;-73
2022/04/16 05:52:01;;;;;;;;;;;7.60;99.90;;;;;;5086027;28;19973;-73
2022/04/16 05:54:27;;;;;;;;;;;7.70;99.90;;;;;;5080732;28;19970;-73
2022/04/16 05:56:53;;;;;;;;;;;7.70;99.90;;;;;;5079377;28;20432;-72
2022/04/16 05:59:18;;;;;;;;;;;8.20;99.90;;;;;;5091059;28;19930;-73
2022/04/16 06:01:44;;;;;;;;;;;7.80;99.90;;;;;;5111285;28;19920;-73
2022/04/16 06:04:09;;;;;;;;;;;8.70;99.90;;;;;;5084526;28;20023;-73
2022/04/16 06:06:36;;;;;;;;;;;8.00;99.90;;;;;;5086165;28;19927;-72
2022/04/16 06:09:01;;;;;;;;;;;8.10;99.90;;;;;;5075327;28;20394;-73
2022/04/16 06:11:28;;;;;;;;;;;8.10;99.90;;;;;;5100956;28;19920;-72
2022/04/16 06:13:54;;;;;;;;;;;8.10;99.90;;;;;;5107728;28;19920;-73
2022/04/16 06:16:19;;;;;;;;;;;8.20;99.90;;;;;;5093897;28;19927;-73
2022/04/16 06:18:44;;;;;;;;;;;9.00;99.90;;;;;;5111032;28;20049;-73
2022/04/16 06:21:10;;;;;;;;;;;8.20;99.90;;;;;;5097822;28;21418;-73
2022/04/16 06:23:44;;;;;;;;;;;8.30;99.90;;;;;;5080160;28;20010;-73
2022/04/16 06:26:10;;;;;;;;;;;8.30;99.90;;;;;;5105908;28;20375;-73
2022/04/16 06:28:38;;;;;;;;;;;8.40;99.90;;;;;;5110142;28;19923;-73
2022/04/16 06:31:03;;;;;;;;;;;8.50;99.90;;;;;;5095594;28;19927;-72
2022/04/16 06:33:29;;;;;;;;;;;8.50;99.90;;;;;;5095945;28;19927;-73
2022/04/16 06:35:54;;;;;;;;;;;8.60;99.90;;;;;;5091617;28;20442;-73
2022/04/16 06:38:23;;;;;;;;;;;8.60;99.90;;;;;;5073315;28;19927;-72
2022/04/16 06:40:48;;;;;;;;;;;8.60;99.90;;;;;;5069104;28;19985;-73
2022/04/16 06:43:14;;;;;;;;;;;8.60;99.90;;;;;;5070058;28;19924;-73
2022/04/16 06:45:39;;;;;;;;;;;8.60;99.90;;;;;;5091466;28;20006;-73
2022/04/16 06:48:05;;;;;;;;;;;8.60;99.90;;;;;;5106394;28;19928;-72
2022/04/16 06:50:30;;;;;;;;;;;8.70;99.90;;;;;;5072799;28;20435;-73
2022/04/16 06:52:56;;;;;;;;;;;10.10;99.90;;;;;;5073207;28;19920;-73
2022/04/16 06:55:22;;;;;;;;;;;8.60;99.90;;;;;;5091946;28;19928;-72
2022/04/16 06:57:47;;;;;;;;;;;9.00;99.90;;;;;;5090439;28;19920;-73
2022/04/16 07:00:13;;;;;;;;;;;9.10;99.90;;;;;;5097197;28;19981;-73
2022/04/16 07:02:39;;;;;;;;;;;9.20;99.90;;;;;;5090289;28;20037;-73
2022/04/16 07:05:05;;;;;;;;;;;9.30;99.90;;;;;;5090889;28;20370;-73
2022/04/16 07:07:31;;;;;;;;;;;9.30;99.90;;;;;;5073180;28;19920;-72
2022/04/16 07:09:56;;;;;;;;;;;9.30;99.90;;;;;;5090025;28;19927;-73
2022/04/16 07:12:22;;;;;;;;;;;9.30;99.90;;;;;;5091079;28;19953;-73
2022/04/16 07:14:51;;;;;;;;;;;9.50;99.90;;;;;;5090917;28;20344;-72
2022/04/16 07:17:16;;;;;;;;;;;10.00;99.90;;;;;;5090360;28;19924;-73
2022/04/16 07:19:41;;;;;;;;;;;10.90;99.90;;;;;;5072721;28;19920;-73
2022/04/16 07:22:07;;;;;;;;;;;11.70;99.90;;;;;;5090676;28;20295;-73
2022/04/16 07:24:37;;;;;;;;;;;12.90;99.90;;;;;;5090576;28;19970;-73
2022/04/16 07:27:03;;;;;;;;;;;12.10;99.90;;;;;;5090939;28;20287;-73
2022/04/16 07:29:29;;;;;;;;;;;12.50;99.90;;;;;;5090790;28;20408;-72
2022/04/16 07:31:54;;;;;;;;;;;13.40;99.90;;;;;;5071544;28;19955;-72
2022/04/16 07:34:20;;;;;;;;;;;13.30;99.90;;;;;;5104824;28;19926;-72
2022/04/16 07:36:45;;;;;;;;;;;13.40;99.90;;;;;;5081899;28;19920;-73
2022/04/16 07:39:12;;;;;;;;;;;14.00;99.90;;;;;;5101422;28;19920;-73
2022/04/16 07:41:37;;;;;;;;;;;15.00;99.90;;;;;;5113977;28;19920;-73
2022/04/16 07:44:03;;;;;;;;;;;14.80;99.90;;;;;;5091881;28;19989;-72
2022/04/16 07:46:38;;;;;;;;;;;15.20;99.90;;;;;;5098183;28;19970;-73
2022/04/16 07:49:03;;;;;;;;;;;15.90;99.90;;;;;;5095321;28;19928;-73
2022/04/16 07:51:32;;;;;;;;;;;16.20;99.90;;;;;;5099540;28;19950;-74
2022/04/16 07:53:58;;;;;;;;;;;16.70;99.60;;;;;;5096655;28;20325;-74
2022/04/16 07:56:23;;;;;;;;;;;17.30;99.00;;;;;;5095595;28;20367;-73
2022/04/16 07:58:50;;;;;;;;;;;17.00;98.60;;;;;;5104802;28;19974;-81
2022/04/16 08:01:17;;;;;;;;;;;17.30;99.30;;;;;;5079270;28;19920;-76
2022/04/16 08:03:44;;;;;;;;;;;16.90;98.60;;;;;;5107449;28;19915;-76
2022/04/16 08:06:09;;;;;;;;;;;17.00;98.80;;;;;;5083438;28;20359;-75
2022/04/16 08:08:34;;;;;;;;;;;16.80;99.30;;;;;;5086110;28;19963;-76
2022/04/16 08:11:00;;;;;;;;;;;18.20;99.00;;;;;;5093011;28;19973;-73
2022/04/16 08:13:26;;;;;;;;;;;17.10;97.50;;;;;;5082892;28;20368;-79
2022/04/16 08:15:51;;;;;;;;;;;17.50;98.00;;;;;;5094717;28;19924;-76
2022/04/16 08:18:17;;;;;;;;;;;17.90;96.90;;;;;;5077739;28;19924;-79
2022/04/16 08:20:43;;;;;;;;;;;18.30;97.00;;;;;;5094357;28;19928;-85
2022/04/16 08:23:08;;;;;;;;;;;18.10;96.50;;;;;;5081284;28;19985;-77
2022/04/16 08:28:00;;;;;;;;;;;18.00;96.80;;;;;;5082821;28;19923;-72
2022/04/16 08:30:26;;;;;;;;;;;18.00;97.10;;;;;;5080513;28;20053;-74
2022/04/16 08:32:52;;;;;;;;;;;18.50;96.50;;;;;;5094772;28;19920;-74
2022/04/16 08:35:18;;;;;;;;;;;19.00;96.20;;;;;;5112133;28;19919;-75
2022/04/16 08:37:44;;;;;;;;;;;19.50;94.10;;;;;;5103781;28;20006;-79
2022/04/16 08:40:10;;;;;;;;;;;19.30;94.30;;;;;;5094706;28;20015;-74
2022/04/16 08:42:37;;;;;;;;;;;19.00;93.60;;;;;;5097538;28;19967;-81
2022/04/16 08:45:03;;;;;;;;;;;18.50;94.50;;;;;;5073799;28;20003;-80
2022/04/16 08:47:32;;;;;;;;;;;19.10;95.00;;;;;;5091743;28;19920;-74
2022/04/16 08:50:02;;;;;;;;;;;19.80;93.10;;;;;;5112030;28;20331;-80
2022/04/16 08:52:31;;;;;;;;;;;20.50;93.10;;;;;;5075904;28;19924;-77
2022/04/16 08:55:06;;;;;;;;;;;20.70;90.70;;;;;;5087505;28;20002;-82
2022/04/16 08:57:32;;;;;;;;;;;20.00;90.40;;;;;;5076621;28;20298;-76
2022/04/16 08:59:57;;;;;;;;;;;19.30;92.70;;;;;;5105760;28;20006;-79
2022/04/16 09:02:26;;;;;;;;;;;19.60;91.50;;;;;;5108143;28;19930;-77
2022/04/16 09:05:01;;;;;;;;;;;19.30;91.50;;;;;;5110899;28;20327;-78
2022/04/16 09:07:27;;;;;;;;;;;20.00;90.90;;;;;;5103477;28;20337;-79
2022/04/16 09:09:52;;;;;;;;;;;19.30;90.80;;;;;;5098843;28;21453;-80
2022/04/16 09:12:18;;;;;;;;;;;20.00;91.50;;;;;;5093984;28;19922;-81
2022/04/16 09:14:45;;;;;;;;;;;20.10;92.10;;;;;;5095783;28;20367;-77
2022/04/16 09:17:18;;;;;;;;;;;19.90;89.50;;;;;;5090268;28;19926;-77
2022/04/16 09:19:52;;;;;;;;;;;20.30;87.70;;;;;;5079618;28;19923;-79
2022/04/16 09:22:31;;;;;;;;;;;20.60;91.40;;;;;;5078765;28;19928;-75
2022/04/16 09:24:57;;;;;;;;;;;20.70;84.70;;;;;;5085975;28;19926;-76
2022/04/16 09:27:25;;;;;;;;;;;20.40;85.30;;;;;;5107092;28;19923;-74
2022/04/16 09:29:52;;;;;;;;;;;20.80;88.20;;;;;;5078648;28;19923;-76
2022/04/16 09:32:23;;;;;;;;;;;21.20;82.70;;;;;;5068829;28;20302;-71
2022/04/16 09:34:48;;;;;;;;;;;20.90;86.10;;;;;;5086308;28;19924;-72
2022/04/16 09:37:14;;;;;;;;;;;20.80;86.60;;;;;;5070605;28;19931;-72
2022/04/16 09:39:40;;;;;;;;;;;20.80;83.90;;;;;;5070297;28;20011;-75
2022/04/16 09:42:27;;;;;;;;;;;21.90;82.90;;;;;;5045595;28;19921;-73
2022/04/16 09:44:52;;;;;;;;;;;21.50;80.10;;;;;;5045548;28;19925;-70
2022/04/16 09:47:24;;;;;;;;;;;21.10;83.60;;;;;;5045578;28;19935;-71
2022/04/16 09:49:52;;;;;;;;;;;21.10;78.90;;;;;;5046286;28;20007;-71
2022/04/16 09:52:21;;;;;;;;;;;21.70;75.30;;;;;;5045049;28;19924;-71
2022/04/16 09:54:51;;;;;;;;;;;21.00;75.70;;;;;;5045843;28;19931;-72
2022/04/16 09:57:19;;;;;;;;;;;20.80;76.70;;;;;;5027851;28;19925;-71
2022/04/16 09:59:45;;;;;;;;;;;20.60;76.40;;;;;;5045355;28;19932;-73
2022/04/16 10:02:14;;;;;;;;;;;20.90;79.00;;;;;;5028097;28;19932;-72
2022/04/16 10:04:40;;;;;;;;;;;21.30;77.90;;;;;;5045233;28;19975;-72
2022/04/16 10:07:06;;;;;;;;;;;21.10;80.10;;;;;;5045217;28;20044;-73
2022/04/16 10:09:35;;;;;;;;;;;20.90;79.50;;;;;;5029215;28;20372;-70
2022/04/16 10:15:04;;;;;;;;;;;20.60;78.10;;;;;;5064158;28;19923;-73
2022/04/16 10:17:39;;;;;;;;;;;20.40;76.30;;;;;;5065691;28;19927;-73
2022/04/16 10:20:07;;;;;;;;;;;21.30;74.40;;;;;;5076207;28;19963;-76
2022/04/16 10:22:33;;;;;;;;;;;21.20;73.60;;;;;;5089654;28;20271;-76
2022/04/16 10:24:58;;;;;;;;;;;21.40;73.90;;;;;;5077257;28;20378;-73
2022/04/16 10:27:38;;;;;;;;;;;21.30;74.20;;;;;;5089111;28;20007;-75
2022/04/16 10:30:13;;;;;;;;;;;21.40;72.10;;;;;;5055700;28;19923;-72
2022/04/16 10:32:42;;;;;;;;;;;21.40;72.70;;;;;;5097534;28;19931;-73
2022/04/16 10:35:12;;;;;;;;;;;21.20;69.50;;;;;;5094425;28;19924;-72
2022/04/16 10:37:38;;;;;;;;;;;21.10;71.90;;;;;;5125746;28;19970;-72
2022/04/16 10:40:16;;;;;;;;;;;21.00;66.40;;;;;;5108749;28;20366;-72
2022/04/16 10:42:46;;;;;;;;;;;20.80;68.10;;;;;;5105089;28;19975;-71
2022/04/16 10:45:12;;;;;;;;;;;20.80;67.90;;;;;;5107525;28;19996;-71
2022/04/16 10:47:38;;;;;;;;;;;20.60;67.30;;;;;;5108480;28;19981;-72
2022/04/16 10:50:14;;;;;;;;;;;20.40;71.80;;;;;;5107625;28;20021;-71
2022/04/16 10:52:50;;;;;;;;;;;20.70;70.80;;;;;;5106665;28;19939;-71
2022/04/16 10:55:16;;;;;;;;;;;21.20;70.80;;;;;;5078372;28;20311;-72
2022/04/16 10:57:42;;;;;;;;;;;21.60;66.50;;;;;;5106552;28;20297;-72
2022/04/16 11:00:14;;;;;;;;;;;21.10;72.00;;;;;;5090319;28;19992;-73
2022/04/16 11:02:44;;;;;;;;;;;21.30;66.70;;;;;;5108308;28;19924;-76
2022/04/16 11:05:09;;;;;;;;;;;21.70;64.20;;;;;;5108715;28;20302;-73
2022/04/16 11:07:38;;;;;;;;;;;21.90;62.40;;;;;;5111969;28;19923;-73
2022/04/16 11:10:05;;;;;;;;;;;21.20;63.60;;;;;;5109522;28;19924;-73
2022/04/16 11:12:30;;;;;;;;;;;21.10;63.90;;;;;;5106313;27;20041;-75
2022/04/16 11:14:56;;;;;;;;;;;20.70;65.40;;;;;;5113919;27;20042;-72
2022/04/16 11:17:22;;;;;;;;;;;20.70;65.30;;;;;;5127375;27;19937;-74
2022/04/16 11:20:01;;;;;;;;;;;20.80;66.00;;;;;;5113279;27;20285;-73
2022/04/16 11:22:26;;;;;;;;;;;20.70;64.20;;;;;;5117545;27;19923;-72
2022/04/16 11:24:52;;;;;;;;;;;21.00;63.70;;;;;;5117532;27;19947;-72
2022/04/16 11:35:54;;;;;;;;;;;21.00;62.80;;;;;;5106546;28;19930;-72
2022/04/16 11:38:30;;;;;;;;;;;21.20;61.70;;;;;;5110387;27;20018;-76
2022/04/16 11:40:57;;;;;;;;;;;20.80;61.90;;;;;;5102996;27;19924;-73
2022/04/16 11:43:23;;;;;;;;;;;20.40;64.80;;;;;;5112545;27;19972;-79
2022/04/16 11:45:49;;;;;;;;;;;20.60;70.80;;;;;;5105436;28;19923;-78
2022/04/16 11:48:15;;;;;;;;;;;21.20;61.80;;;;;;5122385;27;19947;-76
2022/04/16 11:50:41;;;;;;;;;;;21.30;60.80;;;;;;5121285;27;19944;-76
2022/04/16 11:53:06;;;;;;;;;;;20.90;60.20;;;;;;5114041;27;19970;-72
2022/04/16 11:55:32;;;;;;;;;;;21.00;60.20;;;;;;5108190;28;19920;-74
2022/04/16 11:57:59;;;;;;;;;;;20.80;60.60;;;;;;5120404;27;19923;-73
2022/04/16 12:00:24;;;;;;;;;;;20.80;63.70;;;;;;5100570;28;19930;-74
2022/04/16 12:02:54;;;;;;;;;;;21.00;64.60;;;;;;5075186;28;19924;-74
2022/04/16 12:05:27;;;;;;;;;;;21.20;61.20;;;;;;5110265;28;20318;-73
2022/04/16 12:07:53;;;;;;;;;;;21.50;59.80;;;;;;5113116;27;20430;-76
2022/04/16 12:10:18;;;;;;;;;;;21.70;58.00;;;;;;5117994;27;20045;-77
2022/04/16 12:12:48;;;;;;;;;;;21.60;58.60;;;;;;5099247;27;19923;-75
2022/04/16 12:15:22;;;;;;;;;;;21.40;60.70;;;;;;5099396;28;19924;-77
2022/04/16 12:17:48;;;;;;;;;;;20.90;59.20;;;;;;5108922;27;20385;-74
2022/04/16 12:20:13;;;;;;;;;;;20.30;63.80;;;;;;5095891;27;19923;-71
2022/04/16 12:22:49;;;;;;;;;;;20.60;63.40;;;;;;5111730;27;19924;-74
2022/04/16 12:25:16;;;;;;;;;;;20.80;61.80;;;;;;5091595;28;19924;-73
2022/04/16 12:27:45;;;;;;;;;;;21.20;61.70;;;;;;5127414;27;19974;-75
2022/04/16 12:30:15;;;;;;;;;;;21.30;61.20;;;;;;5089599;28;20006;-76
2022/04/16 12:32:41;;;;;;;;;;;21.10;62.00;;;;;;5109586;27;19924;-73
2022/04/16 12:35:06;;;;;;;;;;;20.80;66.50;;;;;;5087656;28;20346;-75
2022/04/16 12:37:32;;;;;;;;;;;21.30;59.00;;;;;;5088572;28;19923;-75
2022/04/16 12:39:57;;;;;;;;;;;21.30;60.10;;;;;;5107006;28;19930;-75
2022/04/16 12:42:23;;;;;;;;;;;21.70;58.10;;;;;;5077463;28;19967;-77
2022/04/16 12:44:51;;;;;;;;;;;21.60;59.50;;;;;;5101291;28;19935;-75
2022/04/16 12:47:17;;;;;;;;;;;21.30;58.80;;;;;;5084516;28;19923;-76
2022/04/16 12:49:42;;;;;;;;;;;20.70;56.60;;;;;;5074596;28;20672;-72
2022/04/16 12:52:08;;;;;;;;;;;20.30;59.40;;;;;;5092368;28;19963;-74
2022/04/16 12:54:35;;;;;;;;;;;20.30;57.00;;;;;;5071767;28;20590;-86
2022/04/16 12:57:01;;;;;;;;;;;20.00;57.50;;;;;;5091303;28;19970;-77
2022/04/16 12:59:26;;;;;;;;;;;19.50;58.30;;;;;;5105381;28;20362;-78
2022/04/16 13:01:52;;;;;;;;;;;19.40;59.30;;;;;;5071283;28;19931;-75
2022/04/16 13:04:17;;;;;;;;;;;19.30;58.90;;;;;;5089614;28;20365;-80
2022/04/16 13:06:43;;;;;;;;;;;19.30;58.80;;;;;;5071222;28;19923;-76
2022/04/16 13:09:08;;;;;;;;;;;19.10;56.70;;;;;;5071019;28;20085;-75
2022/04/16 13:11:34;;;;;;;;;;;19.20;55.50;;;;;;5090923;28;19924;-74
2022/04/16 13:14:00;;;;;;;;;;;19.20;55.80;;;;;;5088567;28;19928;-78
2022/04/16 13:16:26;;;;;;;;;;;19.20;53.10;;;;;;5067876;28;19935;-76
2022/04/16 13:18:52;;;;;;;;;;;19.40;54.70;;;;;;5078799;28;19924;-78
2022/04/16 13:21:20;;;;;;;;;;;18.50;55.80;;;;;;5087718;28;19924;-78
2022/04/16 13:23:46;;;;;;;;;;;20.00;53.60;;;;;;5069206;28;19947;-79
2022/04/16 13:26:17;;;;;;;;;;;18.90;51.10;;;;;;5070782;28;19924;-77
2022/04/16 13:28:42;;;;;;;;;;;18.40;53.10;;;;;;5091301;28;19972;-76
2022/04/16 13:31:09;;;;;;;;;;;18.30;50.10;;;;;;5075110;28;20388;-75
2022/04/16 13:33:35;;;;;;;;;;;18.20;47.70;;;;;;5080118;28;20057;-76
2022/04/16 13:36:02;;;;;;;;;;;18.20;48.50;;;;;;5094839;28;20014;-74
2022/04/16 13:38:27;;;;;;;;;;;18.20;49.60;;;;;;5112925;28;19927;-75
2022/04/16 13:43:39;;;;;;;;;;;18.30;50.00;;;;;;5113059;28;19923;-75
2022/04/16 13:46:05;;;;;;;;;;;18.40;52.20;;;;;;5113900;28;20381;-73
2022/04/16 13:48:30;;;;;;;;;;;17.80;48.90;;;;;;5113329;28;20393;-77
2022/04/16 13:50:56;;;;;;;;;;;17.50;48.20;;;;;;5092449;28;19924;-74
2022/04/16 13:53:23;;;;;;;;;;;17.40;49.00;;;;;;5122052;27;19923;-77
2022/04/16 13:55:49;;;;;;;;;;;17.30;49.50;;;;;;5121382;27;19922;-76
2022/04/16 13:58:15;;;;;;;;;;;17.30;50.90;;;;;;5118119;27;19920;-75
2022/04/16 14:00:40;;;;;;;;;;;17.60;48.50;;;;;;5122793;27;20363;-76
2022/04/16 14:03:07;;;;;;;;;;;17.40;48.80;;;;;;5090715;28;20283;-76
2022/04/16 14:05:45;;;;;;;;;;;17.50;51.60;;;;;;5113223;27;19963;-74
2022/04/16 14:08:12;;;;;;;;;;;17.90;49.50;;;;;;5109041;28;19927;-79
2022/04/16 14:10:39;;;;;;;;;;;17.30;50.50;;;;;;5094904;28;20006;-79
2022/04/16 14:13:04;;;;;;;;;;;17.20;50.70;;;;;;5093411;28;19919;-80
2022/04/16 14:15:30;;;;;;;;;;;17.00;49.30;;;;;;5093999;28;19973;-84
2022/04/16 14:17:59;;;;;;;;;;;17.00;51.20;;;;;;5112255;28;19923;-80
2022/04/16 14:20:24;;;;;;;;;;;17.10;50.00;;;;;;5093266;28;20278;-80
2022/04/16 14:22:54;;;;;;;;;;;17.10;48.70;;;;;;5113165;28;19920;-80
2022/04/16 14:25:19;;;;;;;;;;;17.10;47.80;;;;;;5094632;28;20428;-79
2022/04/16 14:27:45;;;;;;;;;;;17.10;50.80;;;;;;5109353;28;19923;-78
2022/04/16 14:30:10;;;;;;;;;;;17.40;54.30;;;;;;5093762;28;19919;-86
2022/04/16 14:32:37;;;;;;;;;;;17.20;52.10;;;;;;5094668;28;19920;-81
2022/04/16 14:35:03;;;;;;;;;;;17.00;50.60;;;;;;5093967;28;19944;-77
2022/04/16 14:37:28;;;;;;;;;;;17.10;51.20;;;;;;5075103;28;19920;-77
2022/04/16 14:39:54;;;;;;;;;;;17.20;51.30;;;;;;5092058;28;20290;-75
2022/04/16 14:42:20;;;;;;;;;;;17.40;50.80;;;;;;5091716;28;19939;-74